createdAt,value
2018-06-27T00:17:56.892Z,17.77
2018-06-27T00:20:29.453Z,16.67
2018-06-27T00:23:01.799Z,17.63
2018-06-27T00:28:06.981Z,28.83
2018-06-27T00:30:40.493Z,26.37
2018-06-27T00:33:13.266Z,24.37
2018-06-27T00:35:45.671Z,29.23
2018-06-27T00:38:19.813Z,31.23
2018-06-27T00:40:53.141Z,24.60
2018-06-27T00:43:26.303Z,20.70
2018-06-27T00:56:28.152Z,18.37
2018-06-27T00:59:04.466Z,14.47
2018-06-27T01:01:36.904Z,12.90
2018-06-27T01:04:17.127Z,8.67
2018-06-27T01:06:53.431Z,10.57
2018-06-27T01:09:25.943Z,10.33
2018-06-27T01:12:06.060Z,16.13
2018-06-27T01:14:39.578Z,32.90
2018-06-27T01:17:12.055Z,11.53
2018-06-27T01:19:45.408Z,14.17
2018-06-27T01:22:22.528Z,22.70
2018-06-27T01:24:58.635Z,27.07
2018-06-27T01:27:43.553Z,22.73
2018-06-27T01:30:16.170Z,24.60
2018-06-27T01:32:49.334Z,30.23
2018-06-27T01:35:24.999Z,26.33
2018-06-27T01:38:03.209Z,22.07
2018-06-27T01:43:30.530Z,23.05
2018-06-27T01:48:36.492Z,26.17
2018-06-27T01:58:49.508Z,33.55
2018-06-27T02:01:24.227Z,32.60
2018-06-27T02:03:58.276Z,27.53
2018-06-27T02:06:33.858Z,29.90
2018-06-27T02:09:06.880Z,27.37
2018-06-27T02:11:39.058Z,31.53
2018-06-27T02:14:12.198Z,15.50
2018-06-27T02:16:47.412Z,16.80
2018-06-27T02:19:20.020Z,23.13
2018-06-27T02:21:52.419Z,12.73
2018-06-27T02:24:27.643Z,19.37
2018-06-27T02:27:00.336Z,10.80
2018-06-27T02:29:34.356Z,13.20
2018-06-27T02:32:07.061Z,8.77
2018-06-27T02:34:39.327Z,9.97
2018-06-27T02:37:11.579Z,12.17
2018-06-27T02:39:44.088Z,9.23
2018-06-27T02:42:16.367Z,11.83
2018-06-27T02:44:48.577Z,12.07
2018-06-27T02:47:20.738Z,9.03
2018-06-27T02:53:13.892Z,9.53
2018-06-27T02:55:46.446Z,11.90
2018-06-27T02:58:19.198Z,8.90
2018-06-27T03:00:51.743Z,31.27
2018-06-27T03:03:25.497Z,17.67
2018-06-27T03:05:58.128Z,13.63
2018-06-27T03:08:30.592Z,11.07
2018-06-27T03:11:03.132Z,9.43
2018-06-27T03:13:35.614Z,8.37
2018-06-27T03:16:09.222Z,11.03
2018-06-27T03:18:50.376Z,10.63
2018-06-27T03:21:26.510Z,9.20
2018-06-27T03:23:59.078Z,9.20
2018-06-27T03:26:31.888Z,10.57
2018-06-27T03:29:04.369Z,10.60
2018-06-27T03:31:37.105Z,9.50
2018-06-27T03:34:12.337Z,9.47
2018-06-27T03:36:45.181Z,12.17
2018-06-27T03:39:22.240Z,13.23
2018-06-27T03:41:55.896Z,11.73
2018-06-27T03:44:33.013Z,15.07
2018-06-27T03:47:06.853Z,24.67
2018-06-27T03:49:40.668Z,22.30
2018-06-27T03:52:14.028Z,19.10
2018-06-27T03:54:46.794Z,17.93
2018-06-27T03:57:19.319Z,18.40
2018-06-27T03:59:52.023Z,17.47
2018-06-27T04:02:24.712Z,19.00
2018-06-27T04:04:57.156Z,21.67
2018-06-27T04:07:29.694Z,21.47
2018-06-27T04:10:02.391Z,21.13
2018-06-27T04:12:34.939Z,24.80
2018-06-27T04:15:08.965Z,26.23
2018-06-27T04:17:41.534Z,23.70
2018-06-27T04:20:14.256Z,29.73
2018-06-27T04:22:47.375Z,19.93
2018-06-27T04:25:19.970Z,17.10
2018-06-27T04:27:52.497Z,21.07
2018-06-27T04:30:25.016Z,15.40
2018-06-27T04:32:57.559Z,18.83
2018-06-27T04:35:30.165Z,25.27
2018-06-27T04:38:02.925Z,28.47
2018-06-27T04:40:59.927Z,22.97
2018-06-27T04:43:32.678Z,22.97
2018-06-27T04:46:05.467Z,26.33
2018-06-27T04:48:38.256Z,24.40
2018-06-27T04:51:11.033Z,22.13
2018-06-27T04:53:43.831Z,25.47
2018-06-27T04:56:16.567Z,22.53
2018-06-27T04:58:49.232Z,22.07
2018-06-27T05:01:22.682Z,19.67
2018-06-27T05:03:55.453Z,19.87
2018-06-27T05:06:28.324Z,23.83
2018-06-27T05:09:01.237Z,18.70
2018-06-27T05:11:34.589Z,18.57
2018-06-27T05:14:07.618Z,23.37
2018-06-27T05:19:24.799Z,20.33
2018-06-27T05:21:57.558Z,20.87
2018-06-27T05:24:30.547Z,21.23
2018-06-27T05:27:03.391Z,16.33
2018-06-27T05:29:36.201Z,18.83
2018-06-27T05:32:09.044Z,21.63
2018-06-27T05:34:41.823Z,17.50
2018-06-27T05:37:14.769Z,21.03
2018-06-27T05:39:48.181Z,25.57
2018-06-27T05:42:21.163Z,24.60
2018-06-27T05:44:53.995Z,25.23
2018-06-27T05:47:26.724Z,19.83
2018-06-27T05:49:59.366Z,17.20
2018-06-27T05:52:32.231Z,22.97
2018-06-27T05:55:11.211Z,22.23
2018-06-27T05:57:44.000Z,18.43
2018-06-27T06:00:16.890Z,20.90
2018-06-27T06:02:49.540Z,20.03
2018-06-27T06:05:22.436Z,17.97
2018-06-27T06:07:56.587Z,23.77
2018-06-27T06:10:29.282Z,17.77
2018-06-27T06:13:02.031Z,25.63
2018-06-27T06:15:34.954Z,20.57
2018-06-27T06:18:07.815Z,24.90
2018-06-27T06:20:40.481Z,25.37
2018-06-27T06:23:13.271Z,18.03
2018-06-27T06:25:45.908Z,18.10
2018-06-27T06:28:18.699Z,17.63
2018-06-27T06:30:51.504Z,17.50
2018-06-27T06:33:24.171Z,27.00
2018-06-27T06:35:56.924Z,21.50
2018-06-27T06:38:29.640Z,21.80
2018-06-27T07:30:26.987Z,22.40
2018-06-27T07:35:29.851Z,18.90
2018-06-27T08:40:10.258Z,24.35
2018-06-27T08:47:44.252Z,26.43
2018-06-27T08:50:16.934Z,21.45
2018-06-27T08:55:19.804Z,25.65
2018-06-27T16:07:12.247Z,9.50
2018-06-27T16:09:48.083Z,9.57
2018-06-27T16:12:21.305Z,9.17
2018-06-27T16:14:57.588Z,15.93
2018-06-27T17:21:19.204Z,15.50
2018-06-27T17:23:51.231Z,14.70
2018-06-27T17:26:23.773Z,8.20
2018-06-27T17:32:04.452Z,12.87
2018-06-27T17:34:36.855Z,9.60
2018-06-27T17:37:09.513Z,14.03
2018-06-27T17:39:43.073Z,8.27
2018-06-27T17:42:15.874Z,11.57
2018-06-27T17:44:53.672Z,10.10
2018-06-27T17:47:26.148Z,4.45
2018-06-27T17:49:58.766Z,11.37
2018-06-27T17:52:32.175Z,13.23
2018-06-27T17:55:04.631Z,8.57
2018-06-27T17:57:37.060Z,10.60
2018-06-27T18:00:10.278Z,5.70
2018-06-27T18:02:42.975Z,8.80
2018-06-27T18:05:15.551Z,7.07
2018-06-27T18:07:47.874Z,13.43
2018-06-27T18:10:20.749Z,9.57
2018-06-27T18:12:54.319Z,8.50
2018-06-27T18:15:27.143Z,8.27
2018-06-27T18:17:59.765Z,12.77
2018-06-27T18:20:34.428Z,12.68
2018-06-27T18:23:07.867Z,11.40
2018-06-27T18:25:42.821Z,13.40
2018-06-27T18:28:16.301Z,12.73
2018-06-27T18:30:53.111Z,12.17
2018-06-27T18:33:32.937Z,10.87
2018-06-27T18:36:08.156Z,13.13
2018-06-27T18:38:42.403Z,12.40
2018-06-27T18:41:16.401Z,17.27
2018-06-27T18:43:52.914Z,10.43
2018-06-27T18:46:27.044Z,15.57
2018-06-27T18:49:00.750Z,14.97
2018-06-27T18:51:58.415Z,16.50
2018-06-27T18:54:41.724Z,57.93
2018-06-27T18:57:36.688Z,15.30
2018-06-27T19:00:11.897Z,31.23
2018-06-27T19:02:45.629Z,29.27
2018-06-27T19:05:18.489Z,15.60
2018-06-27T19:07:49.601Z,13.67
2018-06-27T19:10:23.931Z,19.33
2018-06-27T19:12:57.292Z,20.57
2018-06-27T19:15:29.432Z,19.00
2018-06-27T19:18:02.968Z,18.83
2018-06-27T19:20:35.619Z,24.13
2018-06-27T19:23:09.362Z,17.70
2018-06-27T19:25:42.894Z,16.93
2018-06-27T19:30:50.676Z,14.73
2018-06-27T19:33:23.182Z,19.80
2018-06-27T19:35:55.672Z,13.40
2018-06-27T19:46:03.685Z,19.20
2018-06-27T19:51:09.123Z,13.00
2018-06-27T19:58:46.920Z,12.15
2018-06-27T20:07:10.194Z,7.47
2018-06-27T20:09:44.513Z,14.70
2018-06-27T20:14:46.499Z,12.55
2018-06-27T20:17:18.827Z,15.93
2018-06-27T20:19:51.457Z,11.57
2018-06-27T20:22:24.220Z,20.07
2018-06-27T20:24:57.985Z,14.20
2018-06-27T20:27:30.475Z,15.17
2018-06-27T20:30:03.217Z,15.80
2018-06-27T20:32:34.499Z,8.47
2018-06-27T20:35:07.140Z,12.43
2018-06-27T20:37:39.615Z,11.10
2018-06-27T20:40:12.065Z,10.60
2018-06-27T20:42:44.726Z,10.77
2018-06-27T20:45:17.308Z,21.40
2018-06-27T20:47:49.624Z,11.47
2018-06-27T20:50:22.872Z,18.47
2018-06-27T20:52:55.453Z,10.70
2018-06-27T21:01:19.678Z,9.73
2018-06-27T21:03:52.141Z,7.87
2018-06-27T21:06:24.471Z,10.90
2018-06-27T21:08:57.163Z,13.33
2018-06-27T21:11:29.473Z,13.03
2018-06-27T21:14:00.547Z,8.00
2018-06-27T21:16:32.881Z,10.70
2018-06-27T21:19:06.039Z,13.70
2018-06-27T21:21:38.345Z,10.20
2018-06-27T21:24:10.560Z,7.30
2018-06-27T21:26:42.743Z,6.40
2018-06-27T21:29:14.999Z,10.67
2018-06-27T21:31:49.416Z,13.60
2018-06-27T21:34:21.745Z,6.23
2018-06-27T21:36:54.254Z,7.47
2018-06-27T21:39:26.505Z,12.27
2018-06-27T21:41:58.871Z,12.23
2018-06-27T21:44:31.115Z,8.13
2018-06-27T21:47:03.392Z,6.93
2018-06-27T21:49:35.705Z,8.20
2018-06-27T21:52:07.923Z,5.17
2018-06-27T21:54:40.716Z,8.60
2018-06-27T21:57:13.075Z,12.67
2018-06-27T21:59:45.317Z,8.13
2018-06-27T22:02:17.691Z,10.00
2018-06-27T22:04:50.092Z,6.77
2018-06-27T22:07:22.328Z,8.40
2018-06-27T22:09:54.827Z,12.60
2018-06-27T22:12:27.502Z,10.87
2018-06-27T22:14:59.882Z,14.10
2018-06-27T22:17:32.377Z,7.23
2018-06-27T22:20:04.735Z,11.00
2018-06-27T22:22:37.307Z,13.80
2018-06-27T22:25:10.153Z,11.43
2018-06-27T22:27:42.821Z,12.63
2018-06-27T22:30:15.053Z,17.27
2018-06-27T22:32:49.919Z,6.40
2018-06-27T22:35:25.307Z,13.77
2018-06-27T22:37:57.818Z,8.50
2018-06-27T22:40:30.096Z,8.20
2018-06-27T22:43:02.422Z,8.23
2018-06-27T22:45:34.773Z,11.07
2018-06-27T22:51:28.006Z,7.33
2018-06-27T22:54:32.847Z,9.73
2018-06-27T22:57:05.230Z,11.53
2018-06-27T22:59:37.565Z,5.10
2018-06-27T23:02:10.028Z,19.10
2018-06-27T23:04:42.911Z,10.27
2018-06-27T23:09:46.025Z,12.27
2018-06-27T23:12:18.417Z,8.60
2018-06-27T23:14:50.747Z,17.27
2018-06-27T23:17:23.177Z,10.77
2018-06-27T23:19:55.752Z,10.73
2018-06-27T23:22:37.367Z,16.53
2018-06-27T23:25:09.752Z,10.87
2018-06-27T23:27:42.426Z,9.57
